sensor_id;sensor_type;location;lat;lon;timestamp;P1;durP1;ratioP1;P2;durP2;ratioP2
59300;SDS011;45073;52.740;6.784;2022-11-11T00:00:22;16.13;;;5.75;;
59300;SDS011;45073;52.740;6.784;2022-11-11T00:02:48;13.15;;;4.75;;
59300;SDS011;45073;52.740;6.784;2022-11-11T00:05:15;14.65;;;5.13;;
59300;SDS011;45073;52.740;6.784;2022-11-11T00:07:41;15.13;;;5.50;;
59300;SDS011;45073;52.740;6.784;2022-11-11T00:10:07;12.20;;;4.65;;
59300;SDS011;45073;52.740;6.784;2022-11-11T00:12:33;17.83;;;5.30;;
59300;SDS011;45073;52.740;6.784;2022-11-11T00:14:59;11.23;;;4.97;;
59300;SDS011;45073;52.740;6.784;2022-11-11T00:17:25;12.23;;;5.72;;
59300;SDS011;45073;52.740;6.784;2022-11-11T00:20:09;16.13;;;5.15;;
59300;SDS011;45073;52.740;6.784;2022-11-11T00:22:53;12.77;;;4.07;;
59300;SDS011;45073;52.740;6.784;2022-11-11T00:25:38;11.00;;;4.55;;
59300;SDS011;45073;52.740;6.784;2022-11-11T00:28:04;16.20;;;7.20;;
59300;SDS011;45073;52.740;6.784;2022-11-11T00:30:29;14.38;;;4.93;;
59300;SDS011;45073;52.740;6.784;2022-11-11T00:32:55;11.15;;;5.25;;
59300;SDS011;45073;52.740;6.784;2022-11-11T00:35:20;10.63;;;5.35;;
59300;SDS011;45073;52.740;6.784;2022-11-11T00:38:06;12.82;;;5.43;;
59300;SDS011;45073;52.740;6.784;2022-11-11T00:40:33;10.15;;;4.55;;
59300;SDS011;45073;52.740;6.784;2022-11-11T00:42:58;13.75;;;6.03;;
59300;SDS011;45073;52.740;6.784;2022-11-11T00:45:24;12.65;;;4.53;;
59300;SDS011;45073;52.740;6.784;2022-11-11T00:47:49;17.45;;;5.95;;
59300;SDS011;45073;52.740;6.784;2022-11-11T00:50:33;12.50;;;5.07;;
59300;SDS011;45073;52.740;6.784;2022-11-11T00:53:19;14.18;;;5.97;;
59300;SDS011;45073;52.740;6.784;2022-11-11T00:55:46;16.67;;;6.03;;
59300;SDS011;45073;52.740;6.784;2022-11-11T00:58:11;11.95;;;5.88;;
59300;SDS011;45073;52.740;6.784;2022-11-11T01:00:37;15.88;;;6.25;;
59300;SDS011;45073;52.740;6.784;2022-11-11T01:03:02;17.25;;;6.10;;
59300;SDS011;45073;52.740;6.784;2022-11-11T01:05:28;15.32;;;5.85;;
59300;SDS011;45073;52.740;6.784;2022-11-11T01:07:54;13.23;;;5.60;;
59300;SDS011;45073;52.740;6.784;2022-11-11T01:10:20;15.55;;;6.13;;
59300;SDS011;45073;52.740;6.784;2022-11-11T01:15:40;15.02;;;6.40;;
59300;SDS011;45073;52.740;6.784;2022-11-11T01:18:07;16.00;;;6.13;;
59300;SDS011;45073;52.740;6.784;2022-11-11T01:20:33;12.77;;;6.85;;
59300;SDS011;45073;52.740;6.784;2022-11-11T01:23:01;13.65;;;6.30;;
59300;SDS011;45073;52.740;6.784;2022-11-11T01:25:28;12.80;;;5.75;;
59300;SDS011;45073;52.740;6.784;2022-11-11T01:27:56;13.32;;;6.70;;
59300;SDS011;45073;52.740;6.784;2022-11-11T01:30:22;15.25;;;6.78;;
59300;SDS011;45073;52.740;6.784;2022-11-11T01:32:47;12.75;;;5.78;;
59300;SDS011;45073;52.740;6.784;2022-11-11T01:35:13;14.15;;;6.05;;
59300;SDS011;45073;52.740;6.784;2022-11-11T01:37:38;15.63;;;6.88;;
59300;SDS011;45073;52.740;6.784;2022-11-11T01:40:04;20.67;;;6.80;;
59300;SDS011;45073;52.740;6.784;2022-11-11T01:42:44;12.80;;;6.25;;
59300;SDS011;45073;52.740;6.784;2022-11-11T01:48:28;15.55;;;7.47;;
59300;SDS011;45073;52.740;6.784;2022-11-11T01:51:25;13.70;;;6.65;;
59300;SDS011;45073;52.740;6.784;2022-11-11T01:54:10;19.10;;;7.95;;
59300;SDS011;45073;52.740;6.784;2022-11-11T01:56:40;16.85;;;7.93;;
59300;SDS011;45073;52.740;6.784;2022-11-11T01:59:09;13.57;;;6.25;;
59300;SDS011;45073;52.740;6.784;2022-11-11T02:01:36;11.43;;;5.85;;
59300;SDS011;45073;52.740;6.784;2022-11-11T02:04:04;16.73;;;7.18;;
59300;SDS011;45073;52.740;6.784;2022-11-11T02:06:50;16.70;;;7.18;;
59300;SDS011;45073;52.740;6.784;2022-11-11T02:09:18;20.17;;;8.82;;
59300;SDS011;45073;52.740;6.784;2022-11-11T02:11:46;17.52;;;8.43;;
59300;SDS011;45073;52.740;6.784;2022-11-11T02:14:33;15.77;;;8.25;;
59300;SDS011;45073;52.740;6.784;2022-11-11T02:17:07;19.05;;;8.57;;
59300;SDS011;45073;52.740;6.784;2022-11-11T02:19:52;14.70;;;8.20;;
59300;SDS011;45073;52.740;6.784;2022-11-11T02:22:32;19.02;;;9.40;;
59300;SDS011;45073;52.740;6.784;2022-11-11T02:25:06;18.73;;;9.18;;
59300;SDS011;45073;52.740;6.784;2022-11-11T02:27:36;16.40;;;8.82;;
59300;SDS011;45073;52.740;6.784;2022-11-11T02:30:05;14.23;;;7.70;;
59300;SDS011;45073;52.740;6.784;2022-11-11T02:32:39;23.65;;;10.15;;
59300;SDS011;45073;52.740;6.784;2022-11-11T02:35:14;22.85;;;10.65;;
59300;SDS011;45073;52.740;6.784;2022-11-11T02:37:42;22.23;;;9.70;;
59300;SDS011;45073;52.740;6.784;2022-11-11T02:40:11;20.67;;;9.57;;
59300;SDS011;45073;52.740;6.784;2022-11-11T02:42:40;15.82;;;8.85;;
59300;SDS011;45073;52.740;6.784;2022-11-11T02:45:06;17.60;;;9.75;;
59300;SDS011;45073;52.740;6.784;2022-11-11T02:47:31;18.10;;;9.90;;
59300;SDS011;45073;52.740;6.784;2022-11-11T02:49:57;17.27;;;10.00;;
59300;SDS011;45073;52.740;6.784;2022-11-11T02:52:22;20.40;;;9.20;;
59300;SDS011;45073;52.740;6.784;2022-11-11T02:54:48;19.27;;;10.15;;
59300;SDS011;45073;52.740;6.784;2022-11-11T02:57:14;20.30;;;11.95;;
59300;SDS011;45073;52.740;6.784;2022-11-11T02:59:40;18.20;;;10.43;;
59300;SDS011;45073;52.740;6.784;2022-11-11T03:02:06;25.65;;;11.57;;
59300;SDS011;45073;52.740;6.784;2022-11-11T03:04:32;22.75;;;11.13;;
59300;SDS011;45073;52.740;6.784;2022-11-11T03:06:59;22.05;;;10.80;;
59300;SDS011;45073;52.740;6.784;2022-11-11T03:09:25;21.00;;;11.65;;
59300;SDS011;45073;52.740;6.784;2022-11-11T03:11:50;21.25;;;10.93;;
59300;SDS011;45073;52.740;6.784;2022-11-11T03:14:16;21.13;;;11.98;;
59300;SDS011;45073;52.740;6.784;2022-11-11T03:16:42;19.45;;;11.60;;
59300;SDS011;45073;52.740;6.784;2022-11-11T03:19:26;24.08;;;12.30;;
59300;SDS011;45073;52.740;6.784;2022-11-11T03:21:51;23.60;;;10.63;;
59300;SDS011;45073;52.740;6.784;2022-11-11T03:24:17;24.10;;;12.38;;
59300;SDS011;45073;52.740;6.784;2022-11-11T03:26:42;22.88;;;12.15;;
59300;SDS011;45073;52.740;6.784;2022-11-11T03:29:08;21.23;;;12.00;;
59300;SDS011;45073;52.740;6.784;2022-11-11T03:31:33;23.92;;;11.75;;
59300;SDS011;45073;52.740;6.784;2022-11-11T03:33:59;21.40;;;11.93;;
59300;SDS011;45073;52.740;6.784;2022-11-11T03:36:42;24.50;;;11.93;;
59300;SDS011;45073;52.740;6.784;2022-11-11T03:39:30;24.13;;;12.55;;
59300;SDS011;45073;52.740;6.784;2022-11-11T03:41:56;23.08;;;12.82;;
59300;SDS011;45073;52.740;6.784;2022-11-11T03:44:22;28.13;;;14.30;;
59300;SDS011;45073;52.740;6.784;2022-11-11T03:46:47;23.30;;;13.40;;
59300;SDS011;45073;52.740;6.784;2022-11-11T03:49:13;25.33;;;15.00;;
59300;SDS011;45073;52.740;6.784;2022-11-11T03:51:38;25.17;;;14.07;;
59300;SDS011;45073;52.740;6.784;2022-11-11T03:54:04;27.88;;;16.33;;
59300;SDS011;45073;52.740;6.784;2022-11-11T03:56:29;27.10;;;13.88;;
59300;SDS011;45073;52.740;6.784;2022-11-11T03:58:55;20.15;;;11.80;;
59300;SDS011;45073;52.740;6.784;2022-11-11T04:01:21;25.33;;;14.73;;
59300;SDS011;45073;52.740;6.784;2022-11-11T04:04:06;23.10;;;14.05;;
59300;SDS011;45073;52.740;6.784;2022-11-11T04:06:51;27.15;;;14.40;;
59300;SDS011;45073;52.740;6.784;2022-11-11T04:09:35;23.75;;;12.52;;
59300;SDS011;45073;52.740;6.784;2022-11-11T04:12:19;25.80;;;13.93;;
59300;SDS011;45073;52.740;6.784;2022-11-11T04:14:46;24.55;;;14.48;;
59300;SDS011;45073;52.740;6.784;2022-11-11T04:17:30;24.60;;;15.23;;
59300;SDS011;45073;52.740;6.784;2022-11-11T04:19:55;24.73;;;13.50;;
59300;SDS011;45073;52.740;6.784;2022-11-11T04:22:40;23.55;;;14.43;;
59300;SDS011;45073;52.740;6.784;2022-11-11T04:25:07;19.88;;;11.65;;
59300;SDS011;45073;52.740;6.784;2022-11-11T04:27:55;24.92;;;13.30;;
59300;SDS011;45073;52.740;6.784;2022-11-11T04:30:41;26.05;;;14.23;;
59300;SDS011;45073;52.740;6.784;2022-11-11T04:33:07;22.77;;;12.35;;
59300;SDS011;45073;52.740;6.784;2022-11-11T04:35:33;28.67;;;14.18;;
59300;SDS011;45073;52.740;6.784;2022-11-11T04:37:59;23.73;;;13.82;;
59300;SDS011;45073;52.740;6.784;2022-11-11T04:40:43;24.13;;;14.30;;
59300;SDS011;45073;52.740;6.784;2022-11-11T04:43:27;22.42;;;11.75;;
59300;SDS011;45073;52.740;6.784;2022-11-11T04:45:53;22.52;;;12.57;;
59300;SDS011;45073;52.740;6.784;2022-11-11T04:48:22;24.33;;;14.10;;
59300;SDS011;45073;52.740;6.784;2022-11-11T04:50:48;25.75;;;13.27;;
59300;SDS011;45073;52.740;6.784;2022-11-11T04:53:14;24.38;;;12.93;;
59300;SDS011;45073;52.740;6.784;2022-11-11T04:55:40;24.95;;;13.43;;
59300;SDS011;45073;52.740;6.784;2022-11-11T04:58:26;27.48;;;12.77;;
59300;SDS011;45073;52.740;6.784;2022-11-11T05:00:57;25.52;;;13.48;;
59300;SDS011;45073;52.740;6.784;2022-11-11T05:03:23;27.38;;;13.48;;
59300;SDS011;45073;52.740;6.784;2022-11-11T05:05:50;24.67;;;13.00;;
59300;SDS011;45073;52.740;6.784;2022-11-11T05:08:45;23.20;;;13.65;;
59300;SDS011;45073;52.740;6.784;2022-11-11T05:11:26;23.00;;;13.23;;
59300;SDS011;45073;52.740;6.784;2022-11-11T05:13:54;23.35;;;12.68;;
59300;SDS011;45073;52.740;6.784;2022-11-11T05:16:40;22.75;;;12.90;;
59300;SDS011;45073;52.740;6.784;2022-11-11T05:19:26;19.17;;;11.10;;
59300;SDS011;45073;52.740;6.784;2022-11-11T05:22:18;23.60;;;13.68;;
59300;SDS011;45073;52.740;6.784;2022-11-11T05:24:47;28.55;;;12.93;;
59300;SDS011;45073;52.740;6.784;2022-11-11T05:27:32;23.67;;;12.70;;
59300;SDS011;45073;52.740;6.784;2022-11-11T05:29:57;20.83;;;11.57;;
59300;SDS011;45073;52.740;6.784;2022-11-11T05:32:23;26.60;;;14.48;;
59300;SDS011;45073;52.740;6.784;2022-11-11T05:34:49;22.58;;;12.13;;
59300;SDS011;45073;52.740;6.784;2022-11-11T05:37:15;23.67;;;12.70;;
59300;SDS011;45073;52.740;6.784;2022-11-11T05:39:41;24.25;;;14.10;;
59300;SDS011;45073;52.740;6.784;2022-11-11T05:42:07;24.10;;;13.52;;
59300;SDS011;45073;52.740;6.784;2022-11-11T05:44:33;24.15;;;12.88;;
59300;SDS011;45073;52.740;6.784;2022-11-11T05:46:59;27.02;;;13.18;;
59300;SDS011;45073;52.740;6.784;2022-11-11T05:49:25;23.30;;;13.50;;
59300;SDS011;45073;52.740;6.784;2022-11-11T05:51:51;26.58;;;13.23;;
59300;SDS011;45073;52.740;6.784;2022-11-11T05:54:17;20.67;;;11.90;;
59300;SDS011;45073;52.740;6.784;2022-11-11T05:56:43;23.17;;;12.32;;
59300;SDS011;45073;52.740;6.784;2022-11-11T05:59:09;24.23;;;12.82;;
59300;SDS011;45073;52.740;6.784;2022-11-11T06:01:35;23.02;;;12.40;;
59300;SDS011;45073;52.740;6.784;2022-11-11T06:04:01;22.40;;;12.48;;
59300;SDS011;45073;52.740;6.784;2022-11-11T06:06:27;25.55;;;12.40;;
59300;SDS011;45073;52.740;6.784;2022-11-11T06:08:52;19.63;;;10.85;;
59300;SDS011;45073;52.740;6.784;2022-11-11T06:11:18;21.45;;;12.40;;
59300;SDS011;45073;52.740;6.784;2022-11-11T06:13:44;22.42;;;12.20;;
59300;SDS011;45073;52.740;6.784;2022-11-11T06:16:09;23.83;;;13.25;;
59300;SDS011;45073;52.740;6.784;2022-11-11T06:18:35;21.88;;;11.23;;
59300;SDS011;45073;52.740;6.784;2022-11-11T06:21:00;22.23;;;12.38;;
59300;SDS011;45073;52.740;6.784;2022-11-11T06:23:27;24.25;;;12.40;;
59300;SDS011;45073;52.740;6.784;2022-11-11T06:25:53;21.33;;;11.68;;
59300;SDS011;45073;52.740;6.784;2022-11-11T06:28:38;21.73;;;11.90;;
59300;SDS011;45073;52.740;6.784;2022-11-11T06:31:05;21.83;;;12.18;;
59300;SDS011;45073;52.740;6.784;2022-11-11T06:33:34;19.83;;;11.88;;
59300;SDS011;45073;52.740;6.784;2022-11-11T06:36:00;21.73;;;11.80;;
59300;SDS011;45073;52.740;6.784;2022-11-11T06:38:26;18.73;;;10.98;;
59300;SDS011;45073;52.740;6.784;2022-11-11T06:40:51;21.77;;;11.13;;
59300;SDS011;45073;52.740;6.784;2022-11-11T06:43:17;22.52;;;12.15;;
59300;SDS011;45073;52.740;6.784;2022-11-11T06:45:43;19.20;;;10.13;;
59300;SDS011;45073;52.740;6.784;2022-11-11T06:48:09;20.95;;;11.45;;
59300;SDS011;45073;52.740;6.784;2022-11-11T06:50:35;21.88;;;11.10;;
59300;SDS011;45073;52.740;6.784;2022-11-11T06:53:05;20.80;;;11.52;;
59300;SDS011;45073;52.740;6.784;2022-11-11T06:55:32;22.05;;;11.77;;
59300;SDS011;45073;52.740;6.784;2022-11-11T06:58:11;20.45;;;11.25;;
59300;SDS011;45073;52.740;6.784;2022-11-11T07:00:42;20.05;;;12.05;;
59300;SDS011;45073;52.740;6.784;2022-11-11T07:03:09;22.70;;;11.48;;
59300;SDS011;45073;52.740;6.784;2022-11-11T07:05:36;16.98;;;9.63;;
59300;SDS011;45073;52.740;6.784;2022-11-11T07:08:03;18.02;;;10.75;;
59300;SDS011;45073;52.740;6.784;2022-11-11T07:10:29;25.67;;;12.48;;
59300;SDS011;45073;52.740;6.784;2022-11-11T07:12:56;19.27;;;11.35;;
59300;SDS011;45073;52.740;6.784;2022-11-11T07:15:21;20.25;;;11.05;;
59300;SDS011;45073;52.740;6.784;2022-11-11T07:17:47;19.65;;;10.95;;
59300;SDS011;45073;52.740;6.784;2022-11-11T07:20:12;19.73;;;9.85;;
59300;SDS011;45073;52.740;6.784;2022-11-11T07:22:38;18.00;;;10.07;;
59300;SDS011;45073;52.740;6.784;2022-11-11T07:25:04;20.15;;;10.38;;
59300;SDS011;45073;52.740;6.784;2022-11-11T07:27:30;19.40;;;9.88;;
59300;SDS011;45073;52.740;6.784;2022-11-11T07:29:55;20.73;;;10.00;;
59300;SDS011;45073;52.740;6.784;2022-11-11T07:32:21;19.58;;;9.65;;
59300;SDS011;45073;52.740;6.784;2022-11-11T07:34:46;20.13;;;10.40;;
59300;SDS011;45073;52.740;6.784;2022-11-11T07:37:14;20.10;;;10.90;;
59300;SDS011;45073;52.740;6.784;2022-11-11T07:39:40;18.92;;;11.45;;
59300;SDS011;45073;52.740;6.784;2022-11-11T07:42:05;22.40;;;11.90;;
59300;SDS011;45073;52.740;6.784;2022-11-11T07:44:31;19.55;;;11.13;;
59300;SDS011;45073;52.740;6.784;2022-11-11T07:46:56;18.67;;;10.52;;
59300;SDS011;45073;52.740;6.784;2022-11-11T07:49:22;19.63;;;10.73;;
59300;SDS011;45073;52.740;6.784;2022-11-11T07:51:47;20.88;;;10.85;;
59300;SDS011;45073;52.740;6.784;2022-11-11T07:54:13;21.85;;;11.02;;
59300;SDS011;45073;52.740;6.784;2022-11-11T07:56:38;17.42;;;10.52;;
59300;SDS011;45073;52.740;6.784;2022-11-11T07:59:04;22.92;;;11.13;;
59300;SDS011;45073;52.740;6.784;2022-11-11T08:01:30;21.70;;;11.13;;
59300;SDS011;45073;52.740;6.784;2022-11-11T08:03:55;21.48;;;11.38;;
59300;SDS011;45073;52.740;6.784;2022-11-11T08:06:21;16.23;;;9.20;;
59300;SDS011;45073;52.740;6.784;2022-11-11T08:08:47;19.95;;;9.85;;
59300;SDS011;45073;52.740;6.784;2022-11-11T08:11:14;18.33;;;10.02;;
59300;SDS011;45073;52.740;6.784;2022-11-11T08:13:40;19.77;;;10.40;;
59300;SDS011;45073;52.740;6.784;2022-11-11T08:16:07;20.30;;;10.18;;
59300;SDS011;45073;52.740;6.784;2022-11-11T08:18:34;19.20;;;10.00;;
59300;SDS011;45073;52.740;6.784;2022-11-11T08:21:00;19.52;;;11.50;;
59300;SDS011;45073;52.740;6.784;2022-11-11T08:23:27;25.88;;;10.80;;
59300;SDS011;45073;52.740;6.784;2022-11-11T08:26:00;16.77;;;9.02;;
59300;SDS011;45073;52.740;6.784;2022-11-11T08:28:28;19.38;;;11.13;;
59300;SDS011;45073;52.740;6.784;2022-11-11T08:30:56;19.90;;;11.65;;
59300;SDS011;45073;52.740;6.784;2022-11-11T08:33:23;20.05;;;11.38;;
59300;SDS011;45073;52.740;6.784;2022-11-11T08:35:50;19.40;;;10.70;;
59300;SDS011;45073;52.740;6.784;2022-11-11T08:38:18;18.60;;;10.07;;
59300;SDS011;45073;52.740;6.784;2022-11-11T08:40:44;21.73;;;11.07;;
59300;SDS011;45073;52.740;6.784;2022-11-11T08:43:10;19.90;;;10.73;;
59300;SDS011;45073;52.740;6.784;2022-11-11T08:45:36;25.58;;;10.98;;
59300;SDS011;45073;52.740;6.784;2022-11-11T08:48:01;20.02;;;11.05;;
59300;SDS011;45073;52.740;6.784;2022-11-11T08:50:27;16.65;;;9.60;;
59300;SDS011;45073;52.740;6.784;2022-11-11T08:52:52;18.55;;;10.32;;
59300;SDS011;45073;52.740;6.784;2022-11-11T08:55:18;20.60;;;10.63;;
59300;SDS011;45073;52.740;6.784;2022-11-11T08:57:45;16.65;;;9.98;;
59300;SDS011;45073;52.740;6.784;2022-11-11T09:00:11;20.60;;;10.70;;
59300;SDS011;45073;52.740;6.784;2022-11-11T09:02:37;21.08;;;10.70;;
59300;SDS011;45073;52.740;6.784;2022-11-11T09:05:03;20.58;;;11.13;;
59300;SDS011;45073;52.740;6.784;2022-11-11T09:07:30;20.23;;;11.88;;
59300;SDS011;45073;52.740;6.784;2022-11-11T09:09:56;22.75;;;12.48;;
59300;SDS011;45073;52.740;6.784;2022-11-11T09:12:21;20.52;;;11.88;;
59300;SDS011;45073;52.740;6.784;2022-11-11T09:14:47;22.13;;;11.20;;
59300;SDS011;45073;52.740;6.784;2022-11-11T09:17:14;20.88;;;11.80;;
59300;SDS011;45073;52.740;6.784;2022-11-11T09:19:39;25.00;;;13.05;;
59300;SDS011;45073;52.740;6.784;2022-11-11T09:22:05;21.58;;;12.32;;
59300;SDS011;45073;52.740;6.784;2022-11-11T09:24:31;24.73;;;13.82;;
59300;SDS011;45073;52.740;6.784;2022-11-11T09:26:56;24.23;;;13.23;;
59300;SDS011;45073;52.740;6.784;2022-11-11T09:29:22;24.08;;;12.05;;
59300;SDS011;45073;52.740;6.784;2022-11-11T09:31:48;25.65;;;13.35;;
59300;SDS011;45073;52.740;6.784;2022-11-11T09:34:13;24.20;;;12.23;;
59300;SDS011;45073;52.740;6.784;2022-11-11T09:36:39;23.05;;;12.77;;
59300;SDS011;45073;52.740;6.784;2022-11-11T09:39:04;24.90;;;12.65;;
59300;SDS011;45073;52.740;6.784;2022-11-11T09:50:01;21.20;;;11.50;;
59300;SDS011;45073;52.740;6.784;2022-11-11T09:52:28;22.67;;;11.55;;
59300;SDS011;45073;52.740;6.784;2022-11-11T09:55:14;20.75;;;10.63;;
59300;SDS011;45073;52.740;6.784;2022-11-11T09:57:57;19.42;;;11.35;;
59300;SDS011;45073;52.740;6.784;2022-11-11T10:00:36;19.92;;;11.15;;
59300;SDS011;45073;52.740;6.784;2022-11-11T10:05:40;18.52;;;10.98;;
59300;SDS011;45073;52.740;6.784;2022-11-11T10:08:10;20.35;;;11.40;;
59300;SDS011;45073;52.740;6.784;2022-11-11T10:10:43;21.02;;;10.57;;
59300;SDS011;45073;52.740;6.784;2022-11-11T10:13:19;18.08;;;9.88;;
59300;SDS011;45073;52.740;6.784;2022-11-11T10:21:07;20.67;;;9.65;;
59300;SDS011;45073;52.740;6.784;2022-11-11T10:23:39;14.88;;;8.23;;
59300;SDS011;45073;52.740;6.784;2022-11-11T10:26:06;19.20;;;10.05;;
59300;SDS011;45073;52.740;6.784;2022-11-11T10:28:45;19.20;;;9.65;;
59300;SDS011;45073;52.740;6.784;2022-11-11T10:31:15;16.05;;;9.05;;
59300;SDS011;45073;52.740;6.784;2022-11-11T10:36:33;15.73;;;8.20;;
59300;SDS011;45073;52.740;6.784;2022-11-11T10:39:25;16.10;;;9.38;;
59300;SDS011;45073;52.740;6.784;2022-11-11T10:41:58;16.80;;;9.10;;
59300;SDS011;45073;52.740;6.784;2022-11-11T10:44:24;15.43;;;8.85;;
59300;SDS011;45073;52.740;6.784;2022-11-11T10:49:52;16.88;;;9.20;;
59300;SDS011;45073;52.740;6.784;2022-11-11T10:52:31;15.07;;;8.50;;
59300;SDS011;45073;52.740;6.784;2022-11-11T10:55:03;15.82;;;8.07;;
59300;SDS011;45073;52.740;6.784;2022-11-11T11:00:20;16.63;;;8.82;;
59300;SDS011;45073;52.740;6.784;2022-11-11T11:03:05;16.17;;;8.27;;
59300;SDS011;45073;52.740;6.784;2022-11-11T11:08:33;17.50;;;14.77;;
59300;SDS011;45073;52.740;6.784;2022-11-11T11:11:06;14.00;;;8.70;;
59300;SDS011;45073;52.740;6.784;2022-11-11T11:13:54;15.10;;;8.00;;
59300;SDS011;45073;52.740;6.784;2022-11-11T11:16:25;17.45;;;14.25;;
59300;SDS011;45073;52.740;6.784;2022-11-11T11:19:16;15.63;;;8.95;;
59300;SDS011;45073;52.740;6.784;2022-11-11T11:24:32;16.67;;;8.63;;
59300;SDS011;45073;52.740;6.784;2022-11-11T11:27:05;13.90;;;8.27;;
59300;SDS011;45073;52.740;6.784;2022-11-11T11:34:45;14.20;;;8.15;;
59300;SDS011;45073;52.740;6.784;2022-11-11T11:37:12;17.63;;;13.02;;
59300;SDS011;45073;52.740;6.784;2022-11-11T11:39:38;14.68;;;8.73;;
59300;SDS011;45073;52.740;6.784;2022-11-11T11:42:05;15.20;;;12.65;;
59300;SDS011;45073;52.740;6.784;2022-11-11T11:44:32;15.93;;;12.73;;
59300;SDS011;45073;52.740;6.784;2022-11-11T11:55:12;14.55;;;11.90;;
59300;SDS011;45073;52.740;6.784;2022-11-11T11:57:45;14.95;;;12.10;;
59300;SDS011;45073;52.740;6.784;2022-11-11T12:00:19;16.90;;;12.27;;
59300;SDS011;45073;52.740;6.784;2022-11-11T12:02:59;13.70;;;8.30;;
59300;SDS011;45073;52.740;6.784;2022-11-11T12:05:38;15.50;;;7.35;;
59300;SDS011;45073;52.740;6.784;2022-11-11T12:11:01;13.20;;;11.70;;
59300;SDS011;45073;52.740;6.784;2022-11-11T12:16:25;11.18;;;7.47;;
59300;SDS011;45073;52.740;6.784;2022-11-11T12:21:55;14.30;;;8.32;;
59300;SDS011;45073;52.740;6.784;2022-11-11T12:27:02;11.90;;;6.82;;
59300;SDS011;45073;52.740;6.784;2022-11-11T12:29:47;11.88;;;9.23;;
59300;SDS011;45073;52.740;6.784;2022-11-11T12:32:42;12.27;;;9.70;;
59300;SDS011;45073;52.740;6.784;2022-11-11T12:35:32;13.10;;;9.98;;
59300;SDS011;45073;52.740;6.784;2022-11-11T12:38:18;14.90;;;7.28;;
59300;SDS011;45073;52.740;6.784;2022-11-11T12:41:10;12.38;;;8.68;;
59300;SDS011;45073;52.740;6.784;2022-11-11T12:44:07;13.02;;;8.07;;
59300;SDS011;45073;52.740;6.784;2022-11-11T12:50:32;11.57;;;7.47;;
59300;SDS011;45073;52.740;6.784;2022-11-11T12:53:03;11.05;;;7.28;;
59300;SDS011;45073;52.740;6.784;2022-11-11T12:55:50;10.45;;;7.05;;
59300;SDS011;45073;52.740;6.784;2022-11-11T12:58:54;10.47;;;7.27;;
59300;SDS011;45073;52.740;6.784;2022-11-11T13:01:34;10.82;;;7.28;;
59300;SDS011;45073;52.740;6.784;2022-11-11T13:10:11;11.32;;;7.47;;
59300;SDS011;45073;52.740;6.784;2022-11-11T13:15:37;11.77;;;7.43;;
59300;SDS011;45073;52.740;6.784;2022-11-11T13:18:08;10.85;;;6.63;;
59300;SDS011;45073;52.740;6.784;2022-11-11T13:20:50;11.18;;;6.50;;
59300;SDS011;45073;52.740;6.784;2022-11-11T13:23:21;11.52;;;7.18;;
59300;SDS011;45073;52.740;6.784;2022-11-11T13:25:48;10.18;;;6.32;;
59300;SDS011;45073;52.740;6.784;2022-11-11T13:28:26;11.25;;;6.60;;
59300;SDS011;45073;52.740;6.784;2022-11-11T13:31:18;11.60;;;7.25;;
59300;SDS011;45073;52.740;6.784;2022-11-11T13:33:55;12.13;;;7.18;;
59300;SDS011;45073;52.740;6.784;2022-11-11T13:36:27;11.98;;;7.03;;
59300;SDS011;45073;52.740;6.784;2022-11-11T13:38:57;11.10;;;7.07;;
59300;SDS011;45073;52.740;6.784;2022-11-11T13:41:30;11.80;;;7.03;;
59300;SDS011;45073;52.740;6.784;2022-11-11T13:43:58;12.55;;;7.20;;
59300;SDS011;45073;52.740;6.784;2022-11-11T13:46:32;12.48;;;6.75;;
59300;SDS011;45073;52.740;6.784;2022-11-11T13:48:59;10.00;;;6.77;;
59300;SDS011;45073;52.740;6.784;2022-11-11T13:54:03;10.93;;;6.30;;
59300;SDS011;45073;52.740;6.784;2022-11-11T13:56:50;11.63;;;6.47;;
59300;SDS011;45073;52.740;6.784;2022-11-11T13:59:36;9.55;;;5.82;;
59300;SDS011;45073;52.740;6.784;2022-11-11T14:10:08;10.07;;;6.18;;
59300;SDS011;45073;52.740;6.784;2022-11-11T14:12:38;9.18;;;5.95;;
59300;SDS011;45073;52.740;6.784;2022-11-11T14:15:27;10.38;;;6.13;;
59300;SDS011;45073;52.740;6.784;2022-11-11T14:18:10;9.73;;;5.47;;
59300;SDS011;45073;52.740;6.784;2022-11-11T14:20:49;10.63;;;6.28;;
59300;SDS011;45073;52.740;6.784;2022-11-11T14:23:31;10.77;;;5.78;;
59300;SDS011;45073;52.740;6.784;2022-11-11T14:29:13;10.63;;;5.97;;
59300;SDS011;45073;52.740;6.784;2022-11-11T14:31:27;10.90;;;6.18;;
59300;SDS011;45073;52.740;6.784;2022-11-11T14:34:46;9.73;;;5.47;;
59300;SDS011;45073;52.740;6.784;2022-11-11T14:37:40;9.82;;;6.07;;
59300;SDS011;45073;52.740;6.784;2022-11-11T14:40:25;10.23;;;5.40;;
59300;SDS011;45073;52.740;6.784;2022-11-11T14:42:56;10.40;;;5.50;;
59300;SDS011;45073;52.740;6.784;2022-11-11T14:47:48;11.77;;;5.60;;
59300;SDS011;45073;52.740;6.784;2022-11-11T14:52:58;9.70;;;5.43;;
59300;SDS011;45073;52.740;6.784;2022-11-11T14:55:30;10.52;;;5.43;;
59300;SDS011;45073;52.740;6.784;2022-11-11T14:58:14;11.30;;;5.43;;
59300;SDS011;45073;52.740;6.784;2022-11-11T15:03:26;9.65;;;5.28;;
59300;SDS011;45073;52.740;6.784;2022-11-11T15:06:05;10.13;;;5.13;;
59300;SDS011;45073;52.740;6.784;2022-11-11T15:11:32;10.73;;;5.40;;
59300;SDS011;45073;52.740;6.784;2022-11-11T15:14:21;11.18;;;5.72;;
59300;SDS011;45073;52.740;6.784;2022-11-11T15:19:49;11.52;;;6.00;;
59300;SDS011;45073;52.740;6.784;2022-11-11T15:24:58;12.57;;;7.10;;
59300;SDS011;45073;52.740;6.784;2022-11-11T15:27:50;9.38;;;3.83;;
59300;SDS011;45073;52.740;6.784;2022-11-11T15:30:20;12.10;;;5.82;;
59300;SDS011;45073;52.740;6.784;2022-11-11T15:32:54;10.55;;;5.95;;
59300;SDS011;45073;52.740;6.784;2022-11-11T15:35:51;13.07;;;4.22;;
59300;SDS011;45073;52.740;6.784;2022-11-11T15:38:34;11.93;;;6.50;;
59300;SDS011;45073;52.740;6.784;2022-11-11T15:41:00;10.23;;;5.75;;
59300;SDS011;45073;52.740;6.784;2022-11-11T15:43:26;12.85;;;5.90;;
59300;SDS011;45073;52.740;6.784;2022-11-11T15:45:59;10.13;;;3.67;;
59300;SDS011;45073;52.740;6.784;2022-11-11T15:53:46;9.55;;;5.80;;
59300;SDS011;45073;52.740;6.784;2022-11-11T15:56:25;10.80;;;6.32;;
59300;SDS011;45073;52.740;6.784;2022-11-11T15:58:56;12.68;;;5.85;;
59300;SDS011;45073;52.740;6.784;2022-11-11T16:01:25;10.30;;;5.90;;
59300;SDS011;45073;52.740;6.784;2022-11-11T16:03:52;9.18;;;4.43;;
59300;SDS011;45073;52.740;6.784;2022-11-11T16:06:19;10.43;;;6.10;;
59300;SDS011;45073;52.740;6.784;2022-11-11T16:08:46;10.52;;;5.95;;
59300;SDS011;45073;52.740;6.784;2022-11-11T16:11:15;11.05;;;6.40;;
59300;SDS011;45073;52.740;6.784;2022-11-11T16:13:44;11.13;;;6.30;;
59300;SDS011;45073;52.740;6.784;2022-11-11T16:16:25;11.05;;;4.25;;
59300;SDS011;45073;52.740;6.784;2022-11-11T16:21:40;10.23;;;4.18;;
59300;SDS011;45073;52.740;6.784;2022-11-11T16:24:25;8.80;;;3.95;;
59300;SDS011;45073;52.740;6.784;2022-11-11T16:26:55;10.13;;;3.40;;
59300;SDS011;45073;52.740;6.784;2022-11-11T16:29:21;11.25;;;4.28;;
59300;SDS011;45073;52.740;6.784;2022-11-11T16:31:48;10.48;;;4.05;;
59300;SDS011;45073;52.740;6.784;2022-11-11T16:36:58;11.13;;;5.90;;
59300;SDS011;45073;52.740;6.784;2022-11-11T16:39:30;13.60;;;3.88;;
59300;SDS011;45073;52.740;6.784;2022-11-11T16:41:56;10.38;;;3.60;;
59300;SDS011;45073;52.740;6.784;2022-11-11T16:44:48;10.23;;;3.88;;
59300;SDS011;45073;52.740;6.784;2022-11-11T16:50:04;9.77;;;3.40;;